Time;durP1;ratioP1;P1;durP2;ratioP2;P2;SDS_P1;SDS_P2;PMS_P1;PMS_P2;Temp;Humidity;BMP_temperature;BMP_pressure;BME280_temperature;BME280_humidity;BME280_pressure;Samples;Min_cycle;Max_cycle;Signal;HPM_P1;HPM_P2
2022/11/06 00:01:08;;;;;;;66.05;29.90;;;6.80;99.90;;;;;;5099106;28;20036;-75
2022/11/06 00:03:35;;;;;;;18.70;9.77;;;6.90;99.90;;;;;;5095025;28;20028;-72
2022/11/06 00:08:50;;;;;;;13.37;7.03;;;7.00;99.90;;;;;;5116445;28;20064;-73
2022/11/06 00:11:17;;;;;;;11.17;6.30;;;6.90;99.90;;;;;;5107807;28;20107;-75
2022/11/06 00:13:43;;;;;;;10.18;6.00;;;6.90;99.90;;;;;;5109927;28;20076;-78
2022/11/06 00:16:10;;;;;;;13.80;6.93;;;6.80;99.90;;;;;;5107113;28;20028;-73
2022/11/06 00:18:37;;;;;;;11.80;5.37;;;6.70;99.90;;;;;;5098499;28;20107;-73
2022/11/06 00:21:07;;;;;;;10.07;5.40;;;6.70;99.90;;;;;;5097264;28;20042;-73
2022/11/06 00:23:33;;;;;;;10.02;5.45;;;6.60;99.90;;;;;;5116247;28;20086;-73
2022/11/06 00:25:58;;;;;;;10.07;5.32;;;6.60;99.90;;;;;;5115622;28;20055;-76
2022/11/06 00:28:24;;;;;;;9.30;5.07;;;6.50;99.90;;;;;;5097864;28;20084;-74
2022/11/06 00:30:49;;;;;;;8.80;4.87;;;6.40;99.90;;;;;;5115681;28;20047;-73
2022/11/06 00:33:15;;;;;;;11.17;5.37;;;6.50;99.90;;;;;;5115175;28;20028;-73
2022/11/06 00:35:40;;;;;;;7.13;4.67;;;6.40;99.90;;;;;;5097686;28;20039;-73
2022/11/06 00:38:06;;;;;;;11.33;5.27;;;6.40;99.90;;;;;;5096919;28;20484;-74
2022/11/06 00:40:32;;;;;;;9.80;4.73;;;6.50;99.90;;;;;;5097668;28;20123;-74
2022/11/06 00:42:57;;;;;;;8.10;4.63;;;6.40;99.90;;;;;;5098159;28;20058;-82
2022/11/06 00:45:24;;;;;;;11.07;5.27;;;6.40;99.90;;;;;;5098121;28;20076;-77
2022/11/06 00:47:50;;;;;;;8.77;4.97;;;6.40;99.90;;;;;;5098024;28;20020;-77
2022/11/06 00:50:16;;;;;;;8.77;4.67;;;6.40;99.90;;;;;;5096572;28;20224;-75
2022/11/06 00:52:43;;;;;;;12.87;5.30;;;6.40;99.90;;;;;;5097628;28;20483;-75
2022/11/06 00:55:09;;;;;;;10.30;5.27;;;6.40;99.90;;;;;;5096593;28;20034;-75
2022/11/06 00:57:34;;;;;;;9.70;5.17;;;6.40;99.90;;;;;;5096703;28;20020;-75
2022/11/06 01:00:00;;;;;;;10.37;4.40;;;6.30;99.90;;;;;;5096077;28;20031;-75
2022/11/06 01:02:25;;;;;;;9.40;4.87;;;6.20;99.90;;;;;;5097058;28;20380;-75
2022/11/06 01:04:51;;;;;;;9.40;4.80;;;6.10;99.90;;;;;;5096791;28;20102;-77
2022/11/06 01:07:17;;;;;;;8.97;4.50;;;6.20;99.90;;;;;;5096504;28;20031;-77
2022/11/06 01:09:43;;;;;;;9.10;4.63;;;6.20;99.90;;;;;;5114642;28;20088;-75
2022/11/06 01:12:08;;;;;;;11.90;4.97;;;6.20;99.90;;;;;;5095846;28;20476;-75
2022/11/06 01:14:37;;;;;;;6.97;4.50;;;6.20;99.90;;;;;;5097133;28;20453;-73
2022/11/06 01:17:03;;;;;;;10.43;4.60;;;6.20;99.90;;;;;;5114565;28;20119;-76
2022/11/06 01:19:28;;;;;;;8.70;4.50;;;6.20;99.90;;;;;;5097021;28;20039;-75
2022/11/06 01:21:54;;;;;;;7.07;4.43;;;6.20;99.90;;;;;;5096501;28;20537;-74
2022/11/06 01:24:24;;;;;;;8.37;4.53;;;6.20;99.90;;;;;;5096098;28;20031;-74
2022/11/06 01:26:50;;;;;;;8.93;4.70;;;6.20;99.90;;;;;;5096590;28;20062;-73
2022/11/06 01:29:18;;;;;;;5.73;4.07;;;6.20;99.90;;;;;;5096040;28;20123;-75
2022/11/06 01:31:44;;;;;;;8.50;4.87;;;6.20;99.90;;;;;;5096215;28;20027;-74
2022/11/06 01:34:11;;;;;;;10.60;4.77;;;6.20;99.90;;;;;;5096216;28;20027;-75
2022/11/06 01:36:38;;;;;;;7.90;4.30;;;6.20;99.90;;;;;;5080002;28;20146;-75
2022/11/06 01:39:06;;;;;;;7.37;4.30;;;6.30;99.90;;;;;;5096032;28;20028;-77
2022/11/06 01:41:39;;;;;;;7.70;4.70;;;6.30;99.90;;;;;;5095987;28;20038;-76
2022/11/06 01:44:42;;;;;;;7.13;4.50;;;6.30;99.90;;;;;;5096131;28;20444;-78
2022/11/06 01:47:24;;;;;;;8.33;4.40;;;6.30;99.90;;;;;;5095930;28;20015;-75
2022/11/06 01:49:53;;;;;;;8.18;4.13;;;6.40;99.90;;;;;;5095842;28;20495;-74
2022/11/06 01:52:21;;;;;;;6.63;4.10;;;6.40;99.90;;;;;;5095113;28;20032;-74
2022/11/06 01:54:53;;;;;;;9.37;4.70;;;6.40;99.90;;;;;;5109704;28;20103;-77
2022/11/06 01:57:19;;;;;;;;;;;6.40;99.90;;;;;;5089618;28;20574;-74
2022/11/06 01:59:45;;;;;;;7.70;4.47;;;6.40;99.90;;;;;;5095017;28;19914;-72
2022/11/06 02:02:13;;;;;;;7.57;4.23;;;6.40;99.90;;;;;;5094005;28;20028;-72
2022/11/06 02:04:44;;;;;;;7.13;4.23;;;6.40;99.90;;;;;;5094157;28;20089;-72
2022/11/06 02:07:11;;;;;;;8.43;4.20;;;6.40;99.90;;;;;;5094261;28;20028;-72
2022/11/06 02:09:37;;;;;;;7.37;4.23;;;6.40;99.90;;;;;;5095223;28;20059;-72
2022/11/06 02:12:21;;;;;;;10.17;4.80;;;6.40;99.90;;;;;;5113051;28;20028;-73
2022/11/06 02:14:56;;;;;;;7.47;4.13;;;6.40;99.90;;;;;;5094978;28;20055;-72
2022/11/06 02:17:53;;;;;;;8.93;4.37;;;6.40;99.90;;;;;;5094451;28;20080;-72
2022/11/06 02:20:40;;;;;;;8.20;4.13;;;6.30;99.90;;;;;;5112740;28;20032;-72
2022/11/06 02:23:38;;;;;;;7.67;3.87;;;6.30;99.90;;;;;;5112476;28;20020;-72
2022/11/06 02:26:27;;;;;;;8.70;4.60;;;6.20;99.90;;;;;;5093294;28;20032;-73
2022/11/06 02:29:02;;;;;;;6.63;4.13;;;6.10;99.90;;;;;;5094879;28;20024;-72
2022/11/06 02:31:31;;;;;;;9.30;4.43;;;6.10;99.90;;;;;;5092490;28;20495;-72
2022/11/06 02:34:04;;;;;;;7.10;4.27;;;6.10;99.90;;;;;;5094130;28;20023;-73
2022/11/06 02:36:33;;;;;;;7.60;4.10;;;6.10;99.90;;;;;;5094461;28;20036;-72
2022/11/06 02:39:03;;;;;;;12.23;4.20;;;6.00;99.90;;;;;;5094402;28;20088;-75
2022/11/06 02:41:32;;;;;;;7.03;4.10;;;6.00;99.90;;;;;;5112928;28;20070;-72
2022/11/06 02:43:59;;;;;;;8.77;4.07;;;6.00;99.90;;;;;;5112868;28;20486;-73
2022/11/06 02:46:37;;;;;;;6.30;3.67;;;6.00;99.90;;;;;;5094503;28;20028;-72
2022/11/06 02:49:12;;;;;;;6.57;3.90;;;6.00;99.90;;;;;;5094155;28;20033;-74
2022/11/06 02:51:42;;;;;;;6.13;3.77;;;5.90;99.90;;;;;;5094955;28;20506;-73
2022/11/06 02:54:10;;;;;;;8.03;3.70;;;5.80;99.90;;;;;;5093857;28;20050;-73
2022/11/06 02:56:39;;;;;;;5.13;3.30;;;5.80;99.90;;;;;;5095175;28;20030;-73
2022/11/06 02:59:11;;;;;;;7.93;3.50;;;5.80;99.90;;;;;;5093888;28;20478;-73
2022/11/06 03:01:42;;;;;;;6.93;3.70;;;5.90;99.90;;;;;;5094923;28;20076;-72
2022/11/06 03:04:21;;;;;;;10.48;4.40;;;5.90;99.90;;;;;;5093907;28;20038;-72
2022/11/06 03:07:02;;;;;;;9.10;3.83;;;5.80;99.90;;;;;;5094302;28;20119;-72
2022/11/06 03:09:30;;;;;;;8.05;3.95;;;5.60;99.90;;;;;;5094511;28;20122;-72
2022/11/06 03:12:11;;;;;;;8.87;4.03;;;5.60;99.90;;;;;;5094496;28;20447;-72
2022/11/06 03:14:57;;;;;;;6.90;3.73;;;5.60;99.90;;;;;;5112702;28;20023;-72
2022/11/06 03:17:34;;;;;;;8.73;4.30;;;5.60;99.90;;;;;;5093497;28;20028;-72
2022/11/06 03:20:14;;;;;;;6.47;3.50;;;5.70;99.90;;;;;;5112678;28;20103;-71
2022/11/06 03:22:48;;;;;;;8.87;3.47;;;5.70;99.90;;;;;;5094572;28;20031;-72
2022/11/06 03:25:20;;;;;;;6.97;3.53;;;5.60;99.90;;;;;;5093706;28;20034;-72
2022/11/06 03:28:09;;;;;;;6.32;3.58;;;5.30;99.90;;;;;;5112243;28;20106;-72
2022/11/06 03:30:43;;;;;;;8.20;3.87;;;5.30;99.90;;;;;;5105025;28;20146;-72
2022/11/06 03:33:24;;;;;;;8.27;3.73;;;5.30;99.90;;;;;;5110675;28;20032;-72
2022/11/06 03:35:58;;;;;;;7.57;3.70;;;5.40;99.90;;;;;;5111222;28;20051;-72
2022/11/06 03:38:34;;;;;;;8.40;3.77;;;5.40;99.90;;;;;;5093256;28;20168;-72
2022/11/06 03:41:15;;;;;;;7.37;3.90;;;5.30;99.90;;;;;;5094163;28;20061;-72
2022/11/06 03:43:44;;;;;;;5.65;3.55;;;5.40;99.90;;;;;;5112687;28;20046;-72
2022/11/06 03:46:14;;;;;;;6.80;4.10;;;5.40;99.90;;;;;;5093325;28;20028;-72
2022/11/06 03:48:46;;;;;;;5.50;3.60;;;5.40;99.90;;;;;;5101579;28;20027;-72
2022/11/06 03:51:20;;;;;;;5.70;3.23;;;5.40;99.90;;;;;;5115765;28;20070;-72
2022/11/06 03:53:50;;;;;;;5.57;3.47;;;5.40;99.90;;;;;;5116348;28;20035;-72
2022/11/06 03:56:23;;;;;;;6.10;3.67;;;5.40;99.90;;;;;;5097385;28;20594;-72
2022/11/06 03:58:49;;;;;;;5.97;3.37;;;5.40;99.90;;;;;;5109347;28;20111;-72
2022/11/06 04:01:21;;;;;;;6.10;3.10;;;5.50;99.90;;;;;;5097762;28;20035;-72
2022/11/06 04:03:57;;;;;;;6.85;3.42;;;5.50;99.90;;;;;;5097824;28;20028;-72
2022/11/06 04:06:35;;;;;;;6.23;3.53;;;5.50;99.90;;;;;;5115627;28;20096;-72
2022/11/06 04:14:36;;;;;;;6.50;3.27;;;5.40;99.90;;;;;;5116256;28;20043;-72
2022/11/06 04:17:05;;;;;;;6.77;3.60;;;5.40;99.90;;;;;;5114843;28;20028;-72
2022/11/06 04:19:31;;;;;;;5.97;3.43;;;5.40;99.90;;;;;;5112484;28;20034;-72
2022/11/06 04:22:05;;;;;;;5.83;3.20;;;5.40;99.90;;;;;;5114610;28;20023;-71
2022/11/06 04:27:48;;;;;;;5.90;3.53;;;5.30;99.90;;;;;;5115684;28;20096;-72
2022/11/06 04:30:16;;;;;;;6.00;3.23;;;5.20;99.90;;;;;;5114181;28;20058;-72
2022/11/06 04:33:13;;;;;;;4.63;2.80;;;5.20;99.90;;;;;;5097447;28;20081;-71
2022/11/06 04:35:57;;;;;;;6.80;3.20;;;5.20;99.90;;;;;;5097063;28;20058;-71
2022/11/06 04:38:29;;;;;;;5.37;3.13;;;5.10;99.90;;;;;;5097046;28;20034;-72
2022/11/06 04:41:36;;;;;;;8.90;3.05;;;5.10;99.90;;;;;;5096686;28;20070;-72
2022/11/06 04:44:15;;;;;;;4.17;3.07;;;5.10;99.90;;;;;;5096484;28;20037;-71
2022/11/06 04:46:53;;;;;;;4.63;3.20;;;5.10;99.90;;;;;;5097634;28;20139;-71
2022/11/06 04:49:21;;;;;;;6.03;3.03;;;5.00;99.90;;;;;;5096638;28;20089;-72
2022/11/06 04:51:47;;;;;;;5.93;3.23;;;5.00;99.90;;;;;;5096806;28;20064;-72
2022/11/06 04:54:13;;;;;;;6.57;3.20;;;5.00;99.90;;;;;;5096753;28;20054;-72
2022/11/06 04:56:39;;;;;;;6.87;3.30;;;5.00;99.90;;;;;;5096550;28;20065;-73
2022/11/06 04:59:06;;;;;;;5.20;3.17;;;5.00;99.90;;;;;;5096434;28;20024;-72
2022/11/06 05:01:32;;;;;;;5.20;3.10;;;5.00;99.90;;;;;;5095395;28;20047;-72
2022/11/06 05:03:57;;;;;;;5.10;3.23;;;4.90;99.90;;;;;;5097068;28;20457;-72
2022/11/06 05:06:23;;;;;;;5.47;2.80;;;5.00;99.90;;;;;;5095789;28;20544;-73
2022/11/06 05:08:49;;;;;;;6.07;3.37;;;4.90;99.90;;;;;;5096999;28;20051;-72
2022/11/06 05:11:14;;;;;;;5.70;3.47;;;4.80;99.90;;;;;;5095675;28;20027;-73
2022/11/06 05:13:40;;;;;;;5.63;3.00;;;4.80;99.90;;;;;;5114989;28;20032;-72
2022/11/06 05:16:06;;;;;;;7.93;3.60;;;4.70;99.90;;;;;;5096792;28;20020;-72
2022/11/06 05:18:31;;;;;;;7.37;3.13;;;4.70;99.90;;;;;;5095874;28;20524;-73
2022/11/06 05:23:46;;;;;;;4.53;3.20;;;4.60;99.90;;;;;;5113729;28;20046;-73
2022/11/06 05:26:11;;;;;;;6.33;3.03;;;4.60;99.90;;;;;;5113827;28;20103;-73
2022/11/06 05:28:37;;;;;;;6.23;3.33;;;4.70;99.90;;;;;;5096310;28;20058;-73
2022/11/06 05:31:03;;;;;;;5.70;3.20;;;4.60;99.90;;;;;;5096275;28;20051;-72
2022/11/06 05:33:29;;;;;;;6.80;3.27;;;4.70;99.90;;;;;;5095384;28;20567;-72
2022/11/06 05:35:55;;;;;;;5.60;3.03;;;4.60;99.90;;;;;;5096161;28;20031;-72
2022/11/06 05:38:21;;;;;;;11.13;4.80;;;4.60;99.90;;;;;;5092266;28;20797;-74
2022/11/06 05:40:47;;;;;;;4.87;3.10;;;4.60;99.90;;;;;;5079503;28;20030;-72
2022/11/06 05:43:12;;;;;;;4.53;2.93;;;4.60;99.90;;;;;;5090085;28;20027;-74
2022/11/06 05:45:38;;;;;;;7.77;3.93;;;4.70;99.90;;;;;;5113877;28;20047;-72
2022/11/06 05:48:04;;;;;;;6.83;3.50;;;4.60;99.90;;;;;;5089552;28;20392;-72
2022/11/06 05:50:29;;;;;;;6.77;3.67;;;4.60;99.90;;;;;;5099500;28;20031;-72
2022/11/06 05:52:55;;;;;;;6.23;3.40;;;4.50;99.90;;;;;;5088199;28;20418;-72
2022/11/06 05:55:21;;;;;;;5.33;3.30;;;4.50;99.90;;;;;;5094562;28;20434;-73
2022/11/06 05:57:47;;;;;;;5.60;3.33;;;4.50;99.90;;;;;;5092033;28;20031;-72
2022/11/06 06:00:13;;;;;;;8.23;3.70;;;4.40;99.90;;;;;;5081327;28;20456;-74
2022/11/06 06:02:39;;;;;;;6.80;3.33;;;4.40;99.90;;;;;;5085657;28;20233;-72
2022/11/06 06:05:05;;;;;;;6.63;3.70;;;4.30;99.90;;;;;;5092088;28;20027;-72
2022/11/06 06:07:31;;;;;;;5.00;2.77;;;4.30;99.90;;;;;;5093276;28;20630;-72
2022/11/06 06:09:57;;;;;;;8.53;3.43;;;4.30;99.90;;;;;;5078777;28;20042;-72
2022/11/06 06:12:25;;;;;;;4.43;3.20;;;4.20;99.90;;;;;;5094319;28;20461;-72
2022/11/06 06:14:51;;;;;;;8.83;3.37;;;4.20;99.90;;;;;;5094754;28;20388;-72
2022/11/06 06:17:17;;;;;;;3.70;2.70;;;4.30;99.90;;;;;;5093784;28;20119;-72
2022/11/06 06:19:42;;;;;;;5.90;3.03;;;4.20;99.90;;;;;;5078308;28;20513;-72
2022/11/06 06:22:08;;;;;;;5.70;2.53;;;4.20;99.90;;;;;;5088946;28;20024;-72
2022/11/06 06:24:34;;;;;;;4.67;2.47;;;4.10;99.90;;;;;;5082803;28;20472;-72
2022/11/06 06:27:00;;;;;;;3.53;2.60;;;4.20;99.90;;;;;;5113045;28;20111;-72
2022/11/06 06:29:25;;;;;;;3.03;2.27;;;4.10;99.90;;;;;;5093348;28;20407;-72
2022/11/06 06:31:52;;;;;;;9.50;2.80;;;4.10;99.90;;;;;;5074618;28;20082;-72
2022/11/06 06:34:17;;;;;;;3.90;2.33;;;4.20;99.90;;;;;;5080554;28;21926;-72
2022/11/06 06:36:43;;;;;;;3.47;2.13;;;4.20;99.90;;;;;;5094147;28;20032;-72
2022/11/06 06:39:09;;;;;;;5.67;2.70;;;4.10;99.90;;;;;;5106939;28;20051;-72
2022/11/06 06:41:35;;;;;;;3.10;2.20;;;4.20;99.90;;;;;;5093689;28;20052;-71
2022/11/06 06:44:00;;;;;;;4.27;2.33;;;4.20;99.90;;;;;;5074125;28;20028;-72
2022/11/06 06:46:26;;;;;;;3.63;2.40;;;4.20;99.90;;;;;;5089205;28;20051;-72
2022/11/06 06:48:52;;;;;;;4.73;2.43;;;4.20;99.90;;;;;;5092045;28;20023;-72
2022/11/06 06:51:18;;;;;;;5.63;2.90;;;4.10;99.90;;;;;;5089647;28;20408;-71
2022/11/06 06:53:43;;;;;;;6.13;2.40;;;4.10;99.90;;;;;;5111999;28;20042;-72
2022/11/06 06:56:09;;;;;;;5.20;2.40;;;4.10;99.90;;;;;;5087608;28;20024;-72
2022/11/06 06:58:35;;;;;;;4.73;2.60;;;4.10;99.90;;;;;;5091507;28;20024;-72
2022/11/06 07:01:05;;;;;;;5.33;2.53;;;4.20;99.90;;;;;;5087558;28;20032;-71
2022/11/06 07:03:31;;;;;;;4.10;2.60;;;4.20;99.90;;;;;;5089833;28;20140;-72
2022/11/06 07:05:57;;;;;;;4.10;2.73;;;4.20;99.90;;;;;;5093658;28;20035;-72
2022/11/06 07:08:27;;;;;;;5.17;2.83;;;4.20;99.90;;;;;;5084809;28;20024;-72
2022/11/06 07:10:56;;;;;;;8.00;2.90;;;4.20;99.90;;;;;;5104365;28;20027;-71
2022/11/06 07:13:22;;;;;;;7.43;2.60;;;4.30;99.90;;;;;;5092553;28;20032;-72
2022/11/06 07:15:47;;;;;;;5.53;3.10;;;4.30;99.90;;;;;;5094330;28;20046;-72
2022/11/06 07:18:13;;;;;;;2.93;2.00;;;4.40;99.90;;;;;;5094319;28;20111;-73
2022/11/06 07:20:38;;;;;;;5.53;3.00;;;4.40;99.90;;;;;;5101688;28;20089;-72
2022/11/06 07:23:06;;;;;;;4.53;2.50;;;4.40;99.90;;;;;;5087628;28;20031;-71
2022/11/06 07:25:31;;;;;;;3.70;2.30;;;4.50;99.90;;;;;;5092178;28;20054;-72
2022/11/06 07:28:01;;;;;;;4.73;2.73;;;4.60;99.90;;;;;;5111988;28;20418;-72
2022/11/06 07:30:27;;;;;;;6.17;2.33;;;4.60;99.90;;;;;;5080466;28;20145;-72
2022/11/06 07:32:52;;;;;;;5.13;2.60;;;4.70;99.90;;;;;;5083013;28;20467;-72
2022/11/06 07:35:18;;;;;;;5.33;2.37;;;4.70;99.90;;;;;;5079146;28;20234;-72
2022/11/06 07:37:44;;;;;;;4.00;2.33;;;4.70;99.90;;;;;;5090104;28;20051;-72
2022/11/06 07:40:10;;;;;;;7.07;2.50;;;4.80;99.90;;;;;;5090191;28;20047;-73
2022/11/06 07:42:35;;;;;;;4.53;2.50;;;4.90;99.90;;;;;;5079878;28;20032;-72
2022/11/06 07:45:01;;;;;;;4.33;2.47;;;4.90;99.90;;;;;;5083828;28;20473;-73
2022/11/06 07:47:29;;;;;;;5.57;2.73;;;4.90;99.90;;;;;;5088564;28;20036;-72
2022/11/06 07:49:55;;;;;;;4.43;2.50;;;5.00;99.90;;;;;;5090295;28;20480;-72
2022/11/06 07:52:21;;;;;;;4.73;2.67;;;5.00;99.90;;;;;;5081711;28;20025;-72
2022/11/06 07:54:46;;;;;;;4.37;2.57;;;5.10;99.90;;;;;;5081654;28;20518;-72
2022/11/06 07:57:12;;;;;;;7.27;2.40;;;5.20;99.90;;;;;;5082094;28;20043;-74
2022/11/06 07:59:38;;;;;;;4.77;2.87;;;5.20;99.90;;;;;;5089758;28;20389;-72
2022/11/06 08:02:03;;;;;;;6.83;2.93;;;5.20;99.90;;;;;;5084825;28;20078;-72
2022/11/06 08:04:29;;;;;;;4.03;2.87;;;5.30;99.90;;;;;;5079464;28;20044;-72
2022/11/06 08:06:56;;;;;;;7.40;3.40;;;5.30;99.90;;;;;;5078734;28;20115;-72
2022/11/06 08:09:23;;;;;;;3.60;2.53;;;5.30;99.90;;;;;;5084460;28;20032;-72
2022/11/06 08:11:49;;;;;;;4.30;2.93;;;5.30;99.90;;;;;;5089594;28;20031;-72
2022/11/06 08:14:16;;;;;;;4.73;3.07;;;5.30;99.90;;;;;;5085777;28;20056;-73
2022/11/06 08:16:41;;;;;;;5.20;2.80;;;5.20;99.90;;;;;;5091006;28;20020;-72
2022/11/06 08:19:07;;;;;;;6.07;2.80;;;5.30;99.90;;;;;;5090043;28;20055;-72
2022/11/06 08:21:33;;;;;;;4.53;2.70;;;5.30;99.90;;;;;;5089349;28;20583;-72
2022/11/06 08:23:58;;;;;;;5.43;2.53;;;5.40;99.90;;;;;;5070086;28;20056;-72
2022/11/06 08:26:24;;;;;;;5.93;2.80;;;5.40;99.90;;;;;;5084853;28;20119;-72
2022/11/06 08:28:50;;;;;;;3.40;2.30;;;5.50;99.90;;;;;;5090155;28;20020;-71
2022/11/06 08:31:16;;;;;;;5.53;2.67;;;5.70;99.90;;;;;;5109796;28;20047;-73
2022/11/06 08:33:41;;;;;;;4.90;2.40;;;5.80;99.90;;;;;;5077314;28;20477;-72
2022/11/06 08:36:08;;;;;;;5.87;2.70;;;5.80;99.90;;;;;;5095480;28;20169;-71
2022/11/06 08:38:35;;;;;;;6.13;3.27;;;5.90;99.90;;;;;;5093078;28;20031;-72
2022/11/06 08:41:09;;;;;;;6.10;2.93;;;6.00;99.90;;;;;;5111632;28;20467;-72
2022/11/06 08:43:35;;;;;;;6.00;3.20;;;6.10;99.90;;;;;;5107881;28;20030;-72
2022/11/06 08:46:01;;;;;;;5.87;3.33;;;6.10;99.90;;;;;;5094231;28;20050;-72
2022/11/06 08:48:26;;;;;;;5.83;3.50;;;6.20;99.90;;;;;;5113669;28;20469;-72
2022/11/06 08:50:52;;;;;;;7.10;3.27;;;6.20;99.90;;;;;;5095102;28;20024;-71
2022/11/06 08:53:18;;;;;;;8.90;4.10;;;6.30;99.90;;;;;;5092827;28;20020;-72
2022/11/06 08:55:43;;;;;;;6.33;3.50;;;6.30;99.90;;;;;;5096275;28;21285;-72
2022/11/06 08:58:09;;;;;;;6.77;3.80;;;6.40;99.90;;;;;;5108657;28;20052;-72
2022/11/06 09:00:35;;;;;;;6.33;4.00;;;6.40;99.90;;;;;;5092263;28;20027;-72
2022/11/06 09:03:07;;;;;;;6.67;3.83;;;6.50;99.90;;;;;;5095443;28;20032;-72
2022/11/06 09:05:32;;;;;;;5.07;3.50;;;6.60;99.90;;;;;;5089143;28;20027;-72
2022/11/06 09:07:59;;;;;;;7.03;3.97;;;6.70;99.90;;;;;;5111048;28;20132;-73
2022/11/06 09:10:25;;;;;;;5.67;3.73;;;6.80;99.90;;;;;;5094889;28;20028;-73
2022/11/06 09:12:51;;;;;;;6.77;3.53;;;6.90;99.90;;;;;;5083366;28;20051;-73
2022/11/06 09:15:19;;;;;;;5.27;3.30;;;7.00;99.90;;;;;;5106383;28;20047;-73
2022/11/06 09:17:49;;;;;;;5.10;3.40;;;7.00;99.90;;;;;;5113500;28;20523;-73
2022/11/06 09:20:17;;;;;;;5.20;3.00;;;7.10;99.90;;;;;;5086129;28;20062;-75
2022/11/06 09:22:43;;;;;;;6.20;2.87;;;7.20;99.90;;;;;;5089254;28;20047;-74
2022/11/06 09:25:09;;;;;;;5.90;3.10;;;7.20;99.90;;;;;;5090482;28;20074;-73
2022/11/06 09:27:48;;;;;;;4.03;2.70;;;7.20;99.90;;;;;;5092522;28;20031;-74
2022/11/06 09:30:16;;;;;;;5.15;2.92;;;7.30;99.90;;;;;;5083035;28;20040;-79
2022/11/06 09:32:49;;;;;;;6.00;2.70;;;7.30;99.90;;;;;;5093189;28;20114;-74
2022/11/06 09:35:15;;;;;;;4.87;2.20;;;7.40;99.90;;;;;;5092633;28;20034;-77
2022/11/06 09:37:41;;;;;;;6.03;2.40;;;7.40;99.90;;;;;;5101043;28;20058;-75
2022/11/06 09:40:12;;;;;;;6.47;2.87;;;7.50;99.90;;;;;;5113629;28;20048;-75
2022/11/06 09:43:11;;;;;;;4.45;2.42;;;7.60;99.90;;;;;;5113833;28;20027;-76
2022/11/06 09:45:38;;;;;;;5.55;2.58;;;7.60;99.90;;;;;;5091880;28;20024;-75
2022/11/06 09:48:27;;;;;;;5.38;2.15;;;7.50;99.90;;;;;;5097353;28;20030;-75
2022/11/06 09:51:13;;;;;;;5.28;2.33;;;7.60;99.90;;;;;;5087496;28;20031;-76
2022/11/06 09:53:50;;;;;;;4.38;2.30;;;7.60;99.90;;;;;;5092868;28;20058;-75
2022/11/06 09:56:18;;;;;;;5.95;2.65;;;7.70;99.90;;;;;;5091319;28;20054;-75
2022/11/06 09:58:44;;;;;;;4.30;2.40;;;7.70;99.90;;;;;;5112438;28;20024;-75
2022/11/06 10:01:20;;;;;;;3.03;2.17;;;7.80;99.90;;;;;;5095218;28;20040;-75
2022/11/06 10:03:57;;;;;;;5.60;2.45;;;7.80;99.90;;;;;;5094758;28;20528;-75
2022/11/06 10:06:24;;;;;;;3.55;2.33;;;7.90;99.90;;;;;;5094257;28;20035;-75
2022/11/06 10:08:53;;;;;;;7.20;2.40;;;7.90;99.90;;;;;;5103328;28;20023;-74
2022/11/06 10:11:18;;;;;;;4.13;2.20;;;8.00;99.90;;;;;;5112019;28;20043;-74
2022/11/06 10:14:06;;;;;;;2.88;2.20;;;8.10;99.90;;;;;;5091795;28;20020;-75
2022/11/06 10:16:37;;;;;;;3.50;2.22;;;8.10;99.90;;;;;;5092577;28;20028;-75
2022/11/06 10:19:09;;;;;;;5.38;2.50;;;8.20;99.90;;;;;;5111087;28;20027;-75
2022/11/06 10:21:48;;;;;;;3.60;2.13;;;8.20;99.90;;;;;;5094627;28;20032;-74
2022/11/06 10:24:33;;;;;;;3.75;2.47;;;8.20;99.90;;;;;;5113058;28;20069;-77
2022/11/06 10:27:02;;;;;;;6.00;2.28;;;8.30;99.90;;;;;;5103657;28;20118;-74
2022/11/06 10:29:39;;;;;;;6.70;2.40;;;8.30;99.90;;;;;;5087976;28;20044;-77
2022/11/06 10:32:22;;;;;;;4.32;2.53;;;8.40;99.90;;;;;;5089820;28;20043;-76
2022/11/06 10:34:53;;;;;;;4.13;2.20;;;8.40;99.90;;;;;;5080555;28;20020;-74
2022/11/06 10:37:31;;;;;;;5.78;2.33;;;8.40;99.90;;;;;;5079405;28;20040;-74
2022/11/06 10:39:58;;;;;;;3.25;2.50;;;8.40;99.90;;;;;;5082975;28;20020;-74
2022/11/06 10:42:38;;;;;;;5.68;2.30;;;8.50;99.90;;;;;;5079138;28;20450;-74
2022/11/06 10:45:14;;;;;;;4.10;2.45;;;8.60;99.90;;;;;;5088499;28;20034;-74
2022/11/06 10:47:47;;;;;;;5.00;2.45;;;8.60;99.90;;;;;;5084516;28;20023;-74
2022/11/06 10:50:15;;;;;;;4.75;2.35;;;8.60;99.90;;;;;;5086618;28;20440;-79
2022/11/06 10:52:46;;;;;;;4.15;2.10;;;8.60;99.90;;;;;;5084982;28;20028;-74
2022/11/06 10:55:50;;;;;;;5.38;2.55;;;8.70;99.90;;;;;;5090440;28;20028;-76
2022/11/06 10:58:21;;;;;;;3.15;2.10;;;8.70;99.90;;;;;;5071596;28;20016;-76
2022/11/06 11:00:49;;;;;;;3.70;2.53;;;8.70;99.90;;;;;;5091234;28;20039;-73
2022/11/06 11:03:31;;;;;;;3.55;2.55;;;8.70;99.90;;;;;;5090937;28;20483;-77
2022/11/06 11:05:57;;;;;;;4.47;2.50;;;8.80;99.90;;;;;;5091383;28;20039;-74
2022/11/06 11:08:39;;;;;;;4.65;2.40;;;8.80;99.90;;;;;;5089154;28;20032;-75
2022/11/06 11:11:14;;;;;;;3.53;2.08;;;8.80;99.90;;;;;;5079424;28;20075;-74
2022/11/06 11:14:10;;;;;;;4.50;2.10;;;8.80;99.90;;;;;;5082607;28;20035;-74
2022/11/06 11:16:42;;;;;;;6.72;2.53;;;8.90;99.90;;;;;;5047074;28;20064;-76
2022/11/06 11:19:34;;;;;;;2.03;1.83;;;9.00;99.90;;;;;;5082733;28;20021;-75
2022/11/06 11:22:15;;;;;;;4.18;2.03;;;9.10;99.90;;;;;;5080753;28;20032;-74
2022/11/06 11:25:02;;;;;;;4.15;2.03;;;9.10;99.90;;;;;;5075915;28;20028;-75
2022/11/06 11:27:30;;;;;;;3.90;2.05;;;9.20;99.90;;;;;;5072777;28;20028;-76
2022/11/06 11:29:57;;;;;;;5.13;2.70;;;9.30;99.90;;;;;;5085752;28;20501;-75
2022/11/06 11:32:23;;;;;;;3.17;2.25;;;9.30;99.90;;;;;;5090486;28;20028;-76
2022/11/06 11:34:53;;;;;;;3.33;1.90;;;9.40;99.90;;;;;;5091298;28;20377;-75
2022/11/06 11:37:34;;;;;;;4.20;2.20;;;9.40;99.90;;;;;;5090601;28;20032;-75
2022/11/06 11:40:17;;;;;;;3.90;2.15;;;9.50;99.90;;;;;;5091123;28;20027;-75
2022/11/06 11:42:43;;;;;;;5.00;2.35;;;9.70;99.90;;;;;;5092283;28;20032;-74
2022/11/06 11:45:08;;;;;;;4.10;2.38;;;9.80;99.90;;;;;;5090504;28;20032;-74
2022/11/06 11:47:43;;;;;;;3.67;2.20;;;10.00;99.90;;;;;;5089398;28;20603;-75
2022/11/06 11:50:20;;;;;;;6.20;2.40;;;10.30;99.90;;;;;;5090397;28;20024;-75
2022/11/06 11:52:49;;;;;;;4.70;2.20;;;10.40;99.90;;;;;;5091903;28;20020;-74
2022/11/06 11:55:18;;;;;;;3.60;2.28;;;10.40;99.90;;;;;;5090292;28;20537;-74
2022/11/06 11:57:47;;;;;;;2.80;2.35;;;10.50;99.90;;;;;;5090152;28;20049;-74
2022/11/06 12:00:21;;;;;;;5.35;2.50;;;10.50;99.90;;;;;;5090032;28;20024;-78
2022/11/06 12:02:51;;;;;;;4.30;2.40;;;10.50;99.90;;;;;;5090472;28;20031;-76
2022/11/06 12:05:22;;;;;;;2.55;2.00;;;10.50;99.90;;;;;;5091275;28;20016;-73
2022/11/06 12:07:52;;;;;;;5.38;2.55;;;10.50;99.90;;;;;;5091794;28;20082;-77
2022/11/06 12:10:31;;;;;;;4.15;2.47;;;10.50;99.90;;;;;;5094555;28;20020;-76
2022/11/06 12:13:00;;;;;;;2.65;2.00;;;10.50;99.90;;;;;;5090263;28;20024;-76
2022/11/06 12:15:46;;;;;;;4.28;2.35;;;10.50;99.90;;;;;;5093723;28;20365;-78
2022/11/06 12:18:16;;;;;;;3.55;2.30;;;10.60;99.90;;;;;;5093697;28;20024;-76
2022/11/06 12:21:07;;;;;;;4.38;2.35;;;10.70;99.90;;;;;;5093843;28;20028;-75
2022/11/06 12:23:43;;;;;;;4.57;2.40;;;10.70;99.90;;;;;;5093315;28;20028;-75
2022/11/06 12:26:47;;;;;;;4.82;2.55;;;10.70;99.90;;;;;;5094785;28;20082;-77
2022/11/06 12:29:22;;;;;;;5.07;2.42;;;10.70;99.90;;;;;;5094720;28;20545;-77
2022/11/06 12:32:17;;;;;;;3.25;2.25;;;10.70;99.90;;;;;;5098001;28;20038;-76
2022/11/06 12:34:53;;;;;;;3.95;2.50;;;10.60;99.90;;;;;;5097593;28;20023;-76
2022/11/06 12:37:22;;;;;;;3.88;2.38;;;10.70;99.90;;;;;;5099354;28;20107;-76
2022/11/06 12:40:30;;;;;;;4.80;2.55;;;10.70;99.90;;;;;;5089026;28;20099;-78
2022/11/06 12:43:09;;;;;;;5.28;2.20;;;10.70;99.90;;;;;;5050149;28;20397;-78
2022/11/06 12:45:50;;;;;;;3.72;2.22;;;10.70;99.90;;;;;;5095806;28;20031;-76
2022/11/06 12:48:30;;;;;;;2.60;2.08;;;10.70;99.90;;;;;;5084743;28;20050;-77
2022/11/06 12:51:01;;;;;;;4.18;2.53;;;10.70;99.90;;;;;;5091193;28;20028;-76
2022/11/06 12:53:35;;;;;;;3.10;2.13;;;10.80;99.90;;;;;;5085433;28;20107;-77
2022/11/06 12:56:17;;;;;;;4.20;2.25;;;10.80;99.90;;;;;;5088867;28;20027;-74
2022/11/06 12:59:20;;;;;;;2.67;2.10;;;10.80;99.90;;;;;;5088645;28;20031;-73
2022/11/06 13:01:58;;;;;;;4.50;2.20;;;10.70;99.90;;;;;;5081447;28;20035;-74
2022/11/06 13:04:57;;;;;;;5.82;2.40;;;10.80;99.90;;;;;;5087432;28;20079;-74
2022/11/06 13:07:39;;;;;;;4.03;2.30;;;10.70;99.90;;;;;;5070878;28;20032;-74
2022/11/06 13:10:35;;;;;;;118.07;53.33;;;10.70;99.90;;;;;;5088751;28;20035;-73
2022/11/06 13:13:28;;;;;;;22.58;12.00;;;10.80;99.90;;;;;;5089766;28;20034;-72
2022/11/06 13:16:09;;;;;;;9.43;4.95;;;10.80;99.90;;;;;;5086405;28;20028;-76
2022/11/06 13:18:41;;;;;;;5.53;2.92;;;10.80;99.90;;;;;;5089473;28;20058;-76
2022/11/06 13:21:37;;;;;;;6.38;3.38;;;10.80;99.90;;;;;;5089429;28;20028;-74
2022/11/06 13:24:14;;;;;;;6.57;3.10;;;10.70;99.90;;;;;;5044114;28;20416;-74
2022/11/06 13:26:47;;;;;;;5.80;3.05;;;10.70;99.90;;;;;;5082375;28;20501;-74
2022/11/06 13:29:16;;;;;;;11.57;7.40;;;10.80;99.90;;;;;;5081623;28;20020;-75
2022/11/06 13:32:00;;;;;;;9.48;4.82;;;10.80;99.90;;;;;;5102729;28;20028;-74